sensor_id;sensor_type;location;lat;lon;timestamp;pressure;altitude;pressure_sealevel;temperature;humidity
20825;BME280;10573;50.936;6.978;2023-03-21T00:00:24;101377.13;;;13.02;54.22
20825;BME280;10573;50.936;6.978;2023-03-21T00:02:50;101371.22;;;12.97;54.02
20825;BME280;10573;50.936;6.978;2023-03-21T00:05:16;101375.97;;;13.15;54.00
20825;BME280;10573;50.936;6.978;2023-03-21T00:07:42;101362.13;;;13.16;53.74
20825;BME280;10573;50.936;6.978;2023-03-21T00:10:07;101369.75;;;13.13;53.86
20825;BME280;10573;50.936;6.978;2023-03-21T00:12:33;101359.94;;;13.20;53.68
20825;BME280;10573;50.936;6.978;2023-03-21T00:15:04;101355.91;;;13.24;53.74
20825;BME280;10573;50.936;6.978;2023-03-21T00:17:30;101353.31;;;13.32;53.52
20825;BME280;10573;50.936;6.978;2023-03-21T00:19:57;101354.78;;;13.17;53.85
20825;BME280;10573;50.936;6.978;2023-03-21T00:22:23;101352.59;;;13.30;53.60
20825;BME280;10573;50.936;6.978;2023-03-21T00:24:49;101354.31;;;13.31;53.73
20825;BME280;10573;50.936;6.978;2023-03-21T00:27:16;101346.69;;;13.25;53.54
20825;BME280;10573;50.936;6.978;2023-03-21T00:29:43;101345.44;;;13.09;53.90
20825;BME280;10573;50.936;6.978;2023-03-21T00:32:09;101343.13;;;13.15;54.11
20825;BME280;10573;50.936;6.978;2023-03-21T00:34:34;101342.09;;;13.16;53.84
20825;BME280;10573;50.936;6.978;2023-03-21T00:37:02;101337.78;;;13.13;53.82
20825;BME280;10573;50.936;6.978;2023-03-21T00:39:28;101333.63;;;13.19;53.97
20825;BME280;10573;50.936;6.978;2023-03-21T00:41:53;101337.22;;;13.19;54.03
20825;BME280;10573;50.936;6.978;2023-03-21T00:44:19;101341.00;;;12.99;54.69
20825;BME280;10573;50.936;6.978;2023-03-21T00:46:45;101334.78;;;13.16;54.14
20825;BME280;10573;50.936;6.978;2023-03-21T00:49:11;101334.78;;;13.16;54.66
20825;BME280;10573;50.936;6.978;2023-03-21T00:51:36;101332.81;;;12.99;54.48
20825;BME280;10573;50.936;6.978;2023-03-21T00:54:02;101331.50;;;12.93;54.74
20825;BME280;10573;50.936;6.978;2023-03-21T00:56:30;101322.69;;;13.09;54.65
20825;BME280;10573;50.936;6.978;2023-03-21T00:58:55;101322.47;;;12.83;55.10
20825;BME280;10573;50.936;6.978;2023-03-21T01:01:21;101318.66;;;13.03;54.17
20825;BME280;10573;50.936;6.978;2023-03-21T01:03:46;101311.72;;;13.19;54.34
20825;BME280;10573;50.936;6.978;2023-03-21T01:06:18;101320.63;;;13.21;54.16
20825;BME280;10573;50.936;6.978;2023-03-21T01:08:46;101309.69;;;13.21;54.21
20825;BME280;10573;50.936;6.978;2023-03-21T01:11:15;101313.47;;;13.10;54.56
20825;BME280;10573;50.936;6.978;2023-03-21T01:13:41;101307.41;;;13.06;54.72
20825;BME280;10573;50.936;6.978;2023-03-21T01:16:07;101305.13;;;13.12;54.63
20825;BME280;10573;50.936;6.978;2023-03-21T01:18:37;101299.38;;;13.15;54.58
20825;BME280;10573;50.936;6.978;2023-03-21T01:21:07;101304.22;;;13.21;54.40
20825;BME280;10573;50.936;6.978;2023-03-21T01:23:33;101303.00;;;13.05;54.72
20825;BME280;10573;50.936;6.978;2023-03-21T01:25:59;101306.59;;;12.96;55.09
20825;BME280;10573;50.936;6.978;2023-03-21T01:28:26;101303.81;;;13.16;54.60
20825;BME280;10573;50.936;6.978;2023-03-21T01:30:52;101298.94;;;13.00;54.89
20825;BME280;10573;50.936;6.978;2023-03-21T01:33:18;101296.22;;;13.09;54.89
20825;BME280;10573;50.936;6.978;2023-03-21T01:35:44;101298.56;;;12.95;55.32
20825;BME280;10573;50.936;6.978;2023-03-21T01:38:10;101294.06;;;13.03;54.93
20825;BME280;10573;50.936;6.978;2023-03-21T01:40:37;101291.16;;;13.15;54.82
20825;BME280;10573;50.936;6.978;2023-03-21T01:43:03;101296.66;;;12.95;55.48
20825;BME280;10573;50.936;6.978;2023-03-21T01:48:32;101295.59;;;13.16;54.98
20825;BME280;10573;50.936;6.978;2023-03-21T01:50:58;101295.94;;;13.03;55.12
20825;BME280;10573;50.936;6.978;2023-03-21T01:53:26;101287.81;;;13.21;54.94
20825;BME280;10573;50.936;6.978;2023-03-21T01:55:58;101284.59;;;12.88;55.63
20825;BME280;10573;50.936;6.978;2023-03-21T01:58:26;101291.59;;;13.10;55.37
20825;BME280;10573;50.936;6.978;2023-03-21T02:00:51;101284.97;;;13.13;55.30
20825;BME280;10573;50.936;6.978;2023-03-21T02:03:19;101286.22;;;13.18;54.83
20825;BME280;10573;50.936;6.978;2023-03-21T02:05:52;101287.00;;;13.01;55.51
20825;BME280;10573;50.936;6.978;2023-03-21T02:08:23;101276.84;;;13.21;55.37
20825;BME280;10573;50.936;6.978;2023-03-21T02:10:50;101273.47;;;12.99;55.37
20825;BME280;10573;50.936;6.978;2023-03-21T02:13:19;101269.44;;;13.03;55.32
20825;BME280;10573;50.936;6.978;2023-03-21T02:16:16;101266.16;;;12.90;55.81
20825;BME280;10573;50.936;6.978;2023-03-21T02:18:55;101255.38;;;12.88;55.99
20825;BME280;10573;50.936;6.978;2023-03-21T02:21:47;101255.28;;;12.70;56.35
20825;BME280;10573;50.936;6.978;2023-03-21T02:27:14;101233.81;;;13.13;55.21
20825;BME280;10573;50.936;6.978;2023-03-21T02:41:18;101223.50;;;13.07;55.25
20825;BME280;10573;50.936;6.978;2023-03-21T02:46:33;101230.34;;;12.83;56.05
20825;BME280;10573;50.936;6.978;2023-03-21T02:49:13;101231.84;;;12.68;56.41
20825;BME280;10573;50.936;6.978;2023-03-21T02:51:43;101234.97;;;12.83;55.99
20825;BME280;10573;50.936;6.978;2023-03-21T02:54:16;101234.66;;;12.86;55.80
20825;BME280;10573;50.936;6.978;2023-03-21T02:56:45;101228.94;;;12.69;56.28
20825;BME280;10573;50.936;6.978;2023-03-21T02:59:11;101225.44;;;12.87;56.15
20825;BME280;10573;50.936;6.978;2023-03-21T03:01:38;101228.06;;;12.79;56.15
20825;BME280;10573;50.936;6.978;2023-03-21T03:04:15;101224.50;;;13.06;55.73
20825;BME280;10573;50.936;6.978;2023-03-21T03:10:02;101231.22;;;12.84;56.17
20825;BME280;10573;50.936;6.978;2023-03-21T03:12:58;101226.91;;;12.81;56.66
20825;BME280;10573;50.936;6.978;2023-03-21T03:18:53;101226.19;;;12.79;56.46
20825;BME280;10573;50.936;6.978;2023-03-21T03:21:27;101220.69;;;12.89;56.42
20825;BME280;10573;50.936;6.978;2023-03-21T03:24:10;101220.50;;;13.00;56.07
20825;BME280;10573;50.936;6.978;2023-03-21T03:26:46;101214.78;;;12.93;55.96
20825;BME280;10573;50.936;6.978;2023-03-21T03:29:16;101209.25;;;13.03;55.80
20825;BME280;10573;50.936;6.978;2023-03-21T03:32:13;101202.22;;;13.01;55.97
20825;BME280;10573;50.936;6.978;2023-03-21T03:34:44;101188.28;;;12.94;56.12
20825;BME280;10573;50.936;6.978;2023-03-21T03:37:16;101189.22;;;12.75;56.65
20825;BME280;10573;50.936;6.978;2023-03-21T03:39:57;101197.94;;;12.88;56.33
20825;BME280;10573;50.936;6.978;2023-03-21T03:42:30;101193.28;;;12.61;57.03
20825;BME280;10573;50.936;6.978;2023-03-21T03:44:59;101202.50;;;12.60;57.07
20825;BME280;10573;50.936;6.978;2023-03-21T03:47:45;101203.91;;;12.64;56.83
20825;BME280;10573;50.936;6.978;2023-03-21T03:50:33;101198.72;;;12.71;56.86
20825;BME280;10573;50.936;6.978;2023-03-21T03:55:50;101198.25;;;12.75;56.63
20825;BME280;10573;50.936;6.978;2023-03-21T03:58:20;101192.78;;;12.75;56.86
20825;BME280;10573;50.936;6.978;2023-03-21T04:00:47;101183.59;;;12.76;56.80
20825;BME280;10573;50.936;6.978;2023-03-21T04:03:14;101184.22;;;12.70;56.88
20825;BME280;10573;50.936;6.978;2023-03-21T04:05:40;101186.97;;;12.51;57.28
20825;BME280;10573;50.936;6.978;2023-03-21T04:08:07;101181.28;;;12.82;57.01
20825;BME280;10573;50.936;6.978;2023-03-21T04:10:32;101173.41;;;12.69;56.90
20825;BME280;10573;50.936;6.978;2023-03-21T04:12:58;101175.59;;;12.65;56.93
20825;BME280;10573;50.936;6.978;2023-03-21T04:15:23;101178.59;;;12.62;57.09
20825;BME280;10573;50.936;6.978;2023-03-21T04:17:49;101173.06;;;12.82;56.65
20825;BME280;10573;50.936;6.978;2023-03-21T04:20:15;101180.84;;;12.76;56.84
20825;BME280;10573;50.936;6.978;2023-03-21T04:22:40;101169.34;;;12.73;56.96
20825;BME280;10573;50.936;6.978;2023-03-21T04:25:06;101174.19;;;12.89;56.47
20825;BME280;10573;50.936;6.978;2023-03-21T04:27:32;101174.53;;;12.76;56.80
20825;BME280;10573;50.936;6.978;2023-03-21T04:29:58;101174.81;;;12.73;57.15
20825;BME280;10573;50.936;6.978;2023-03-21T04:32:25;101169.78;;;12.78;56.95
20825;BME280;10573;50.936;6.978;2023-03-21T04:34:51;101173.53;;;12.67;57.34
20825;BME280;10573;50.936;6.978;2023-03-21T04:37:22;101173.13;;;12.62;57.58
20825;BME280;10573;50.936;6.978;2023-03-21T04:39:49;101167.13;;;12.58;57.70
20825;BME280;10573;50.936;6.978;2023-03-21T04:42:16;101168.97;;;12.58;57.77
20825;BME280;10573;50.936;6.978;2023-03-21T04:44:43;101164.22;;;12.60;57.78
20825;BME280;10573;50.936;6.978;2023-03-21T04:47:09;101160.75;;;12.58;57.74
20825;BME280;10573;50.936;6.978;2023-03-21T04:49:35;101166.53;;;12.55;58.02
20825;BME280;10573;50.936;6.978;2023-03-21T04:52:00;101165.69;;;12.45;58.20
20825;BME280;10573;50.936;6.978;2023-03-21T04:54:26;101158.75;;;12.60;58.06
20825;BME280;10573;50.936;6.978;2023-03-21T04:56:51;101162.25;;;12.42;58.11
20825;BME280;10573;50.936;6.978;2023-03-21T04:59:18;101158.47;;;12.63;57.96
20825;BME280;10573;50.936;6.978;2023-03-21T05:01:44;101161.16;;;12.73;57.81
20825;BME280;10573;50.936;6.978;2023-03-21T05:04:12;101163.94;;;12.63;57.85
20825;BME280;10573;50.936;6.978;2023-03-21T05:06:39;101160.56;;;12.79;57.59
20825;BME280;10573;50.936;6.978;2023-03-21T05:09:06;101162.97;;;12.92;57.41
20825;BME280;10573;50.936;6.978;2023-03-21T05:11:34;101167.06;;;12.68;57.96
20825;BME280;10573;50.936;6.978;2023-03-21T05:14:02;101169.09;;;12.66;58.12
20825;BME280;10573;50.936;6.978;2023-03-21T05:16:28;101161.03;;;12.74;57.60
20825;BME280;10573;50.936;6.978;2023-03-21T05:18:56;101167.06;;;12.68;57.98
20825;BME280;10573;50.936;6.978;2023-03-21T05:21:23;101151.69;;;12.67;57.92
20825;BME280;10573;50.936;6.978;2023-03-21T05:23:49;101150.63;;;12.88;57.58
20825;BME280;10573;50.936;6.978;2023-03-21T05:26:24;101156.16;;;12.68;57.79
20825;BME280;10573;50.936;6.978;2023-03-21T05:28:49;101158.97;;;12.76;57.79
20825;BME280;10573;50.936;6.978;2023-03-21T05:31:19;101157.34;;;12.56;58.29
20825;BME280;10573;50.936;6.978;2023-03-21T05:33:45;101166.63;;;12.73;57.75
20825;BME280;10573;50.936;6.978;2023-03-21T05:36:11;101167.19;;;12.76;57.99
20825;BME280;10573;50.936;6.978;2023-03-21T05:38:38;101158.91;;;12.96;57.46
20825;BME280;10573;50.936;6.978;2023-03-21T05:41:10;101167.06;;;12.68;58.20
20825;BME280;10573;50.936;6.978;2023-03-21T05:43:35;101162.09;;;12.91;57.57
20825;BME280;10573;50.936;6.978;2023-03-21T05:46:01;101159.81;;;12.87;57.72
20825;BME280;10573;50.936;6.978;2023-03-21T05:48:26;101162.75;;;12.66;58.33
20825;BME280;10573;50.936;6.978;2023-03-21T05:50:53;101159.88;;;12.67;58.46
20825;BME280;10573;50.936;6.978;2023-03-21T05:53:18;101165.59;;;12.84;58.29
20825;BME280;10573;50.936;6.978;2023-03-21T05:55:44;101164.44;;;12.76;58.21
20825;BME280;10573;50.936;6.978;2023-03-21T05:58:09;101158.75;;;12.60;58.73
20825;BME280;10573;50.936;6.978;2023-03-21T06:00:35;101171.97;;;12.74;58.88
20825;BME280;10573;50.936;6.978;2023-03-21T06:03:00;101163.94;;;12.63;59.05
20825;BME280;10573;50.936;6.978;2023-03-21T06:05:26;101172.53;;;12.68;59.06
20825;BME280;10573;50.936;6.978;2023-03-21T06:07:51;101170.84;;;12.57;59.20
20825;BME280;10573;50.936;6.978;2023-03-21T06:10:16;101167.72;;;12.42;59.66
20825;BME280;10573;50.936;6.978;2023-03-21T06:12:42;101166.84;;;12.52;59.65
20825;BME280;10573;50.936;6.978;2023-03-21T06:15:08;101173.47;;;12.49;59.63
20825;BME280;10573;50.936;6.978;2023-03-21T06:17:34;101171.97;;;12.65;59.47
20825;BME280;10573;50.936;6.978;2023-03-21T06:19:59;101167.97;;;12.59;59.49
20825;BME280;10573;50.936;6.978;2023-03-21T06:22:26;101165.91;;;12.71;59.31
20825;BME280;10573;50.936;6.978;2023-03-21T06:24:52;101175.13;;;12.70;59.26
20825;BME280;10573;50.936;6.978;2023-03-21T06:27:17;101176.59;;;12.64;59.42
20825;BME280;10573;50.936;6.978;2023-03-21T06:29:43;101178.00;;;12.68;59.47
20825;BME280;10573;50.936;6.978;2023-03-21T06:32:10;101172.44;;;12.60;59.68
20825;BME280;10573;50.936;6.978;2023-03-21T06:34:35;101180.75;;;12.68;59.46
20825;BME280;10573;50.936;6.978;2023-03-21T06:37:00;101179.09;;;12.48;59.71
20825;BME280;10573;50.936;6.978;2023-03-21T06:39:28;101179.84;;;12.78;59.33
20825;BME280;10573;50.936;6.978;2023-03-21T06:41:55;101175.69;;;12.73;59.08
20825;BME280;10573;50.936;6.978;2023-03-21T06:44:21;101176.06;;;12.88;58.82
20825;BME280;10573;50.936;6.978;2023-03-21T06:46:47;101182.13;;;12.92;58.72
20825;BME280;10573;50.936;6.978;2023-03-21T06:49:12;101178.75;;;12.61;59.28
20825;BME280;10573;50.936;6.978;2023-03-21T06:51:37;101181.97;;;12.93;58.76
20825;BME280;10573;50.936;6.978;2023-03-21T06:54:03;101187.97;;;12.97;58.59
20825;BME280;10573;50.936;6.978;2023-03-21T06:56:28;101186.31;;;13.14;58.28
20825;BME280;10573;50.936;6.978;2023-03-21T06:58:54;101183.91;;;13.11;58.29
20825;BME280;10573;50.936;6.978;2023-03-21T07:01:19;101188.03;;;13.15;58.22
20825;BME280;10573;50.936;6.978;2023-03-21T07:03:45;101183.38;;;12.98;58.83
20825;BME280;10573;50.936;6.978;2023-03-21T07:06:10;101191.78;;;13.14;58.38
20825;BME280;10573;50.936;6.978;2023-03-21T07:08:37;101192.53;;;13.06;58.88
20825;BME280;10573;50.936;6.978;2023-03-21T07:11:03;101193.06;;;13.20;58.66
20825;BME280;10573;50.936;6.978;2023-03-21T07:13:29;101197.63;;;13.01;59.52
20825;BME280;10573;50.936;6.978;2023-03-21T07:15:56;101202.63;;;13.06;59.72
20825;BME280;10573;50.936;6.978;2023-03-21T07:18:21;101200.75;;;13.06;59.66
20825;BME280;10573;50.936;6.978;2023-03-21T07:20:48;101199.16;;;13.04;59.84
20825;BME280;10573;50.936;6.978;2023-03-21T07:23:19;101206.09;;;13.08;59.99
20825;BME280;10573;50.936;6.978;2023-03-21T07:25:49;101206.09;;;12.98;60.28
20825;BME280;10573;50.936;6.978;2023-03-21T07:28:15;101208.50;;;13.11;60.73
20825;BME280;10573;50.936;6.978;2023-03-21T07:30:42;101201.78;;;12.96;62.15
20825;BME280;10573;50.936;6.978;2023-03-21T07:33:08;101198.53;;;12.92;62.22
20825;BME280;10573;50.936;6.978;2023-03-21T07:35:34;101199.69;;;12.80;63.42
20825;BME280;10573;50.936;6.978;2023-03-21T07:38:02;101193.22;;;12.81;63.92
20825;BME280;10573;50.936;6.978;2023-03-21T07:40:27;101194.91;;;12.91;64.35
20825;BME280;10573;50.936;6.978;2023-03-21T07:42:53;101199.53;;;12.91;64.60
20825;BME280;10573;50.936;6.978;2023-03-21T07:45:18;101194.19;;;12.52;66.13
20825;BME280;10573;50.936;6.978;2023-03-21T07:47:49;101200.94;;;12.95;65.60
20825;BME280;10573;50.936;6.978;2023-03-21T07:50:15;101202.16;;;12.83;66.70
20825;BME280;10573;50.936;6.978;2023-03-21T07:52:40;101202.69;;;12.96;65.44
20825;BME280;10573;50.936;6.978;2023-03-21T07:55:06;101204.91;;;12.63;66.69
20825;BME280;10573;50.936;6.978;2023-03-21T07:57:32;101209.81;;;12.59;67.10
20825;BME280;10573;50.936;6.978;2023-03-21T07:59:57;101206.06;;;12.70;66.94
20825;BME280;10573;50.936;6.978;2023-03-21T08:02:23;101206.25;;;12.49;67.29
20825;BME280;10573;50.936;6.978;2023-03-21T08:04:49;101207.28;;;12.38;67.86
20825;BME280;10573;50.936;6.978;2023-03-21T08:07:15;101203.69;;;12.48;68.48
20825;BME280;10573;50.936;6.978;2023-03-21T08:09:42;101199.03;;;12.58;68.44
20825;BME280;10573;50.936;6.978;2023-03-21T08:12:07;101200.81;;;12.39;69.03
20825;BME280;10573;50.936;6.978;2023-03-21T08:14:33;101205.16;;;12.80;68.20
20825;BME280;10573;50.936;6.978;2023-03-21T08:17:01;101206.19;;;12.79;68.25
20825;BME280;10573;50.936;6.978;2023-03-21T08:19:26;101205.00;;;12.91;68.61
20825;BME280;10573;50.936;6.978;2023-03-21T08:21:52;101195.78;;;12.92;68.63
20825;BME280;10573;50.936;6.978;2023-03-21T08:24:18;101202.72;;;12.76;69.52
20825;BME280;10573;50.936;6.978;2023-03-21T08:26:44;101204.16;;;12.81;69.94
20825;BME280;10573;50.936;6.978;2023-03-21T08:29:12;101195.06;;;12.90;69.85
20825;BME280;10573;50.936;6.978;2023-03-21T08:31:41;101202.09;;;12.92;69.18
20825;BME280;10573;50.936;6.978;2023-03-21T08:34:06;101199.53;;;12.91;69.04
20825;BME280;10573;50.936;6.978;2023-03-21T08:36:32;101202.72;;;12.76;69.67
20825;BME280;10573;50.936;6.978;2023-03-21T08:38:57;101198.59;;;12.53;69.70
20825;BME280;10573;50.936;6.978;2023-03-21T08:41:33;101196.69;;;12.83;69.27
20825;BME280;10573;50.936;6.978;2023-03-21T08:44:00;101197.44;;;12.65;69.81
20825;BME280;10573;50.936;6.978;2023-03-21T08:46:25;101197.56;;;12.73;69.61
20825;BME280;10573;50.936;6.978;2023-03-21T08:48:51;101200.75;;;12.59;70.53
20825;BME280;10573;50.936;6.978;2023-03-21T08:51:17;101195.47;;;12.48;70.55
20825;BME280;10573;50.936;6.978;2023-03-21T08:53:42;101205.94;;;12.62;70.85
20825;BME280;10573;50.936;6.978;2023-03-21T08:56:09;101206.69;;;12.54;70.56
20825;BME280;10573;50.936;6.978;2023-03-21T08:58:35;101192.94;;;12.74;70.79
20825;BME280;10573;50.936;6.978;2023-03-21T09:01:01;101200.06;;;12.57;71.00
20825;BME280;10573;50.936;6.978;2023-03-21T09:03:26;101189.09;;;12.67;70.56
20825;BME280;10573;50.936;6.978;2023-03-21T09:05:53;101197.03;;;12.60;71.18
20825;BME280;10573;50.936;6.978;2023-03-21T09:08:18;101200.94;;;12.38;71.99
20825;BME280;10573;50.936;6.978;2023-03-21T09:10:53;101194.88;;;12.54;71.63
20825;BME280;10573;50.936;6.978;2023-03-21T09:13:20;101200.50;;;12.42;71.51
20825;BME280;10573;50.936;6.978;2023-03-21T09:15:45;101195.94;;;12.33;72.29
20825;BME280;10573;50.936;6.978;2023-03-21T09:18:11;101193.34;;;12.22;72.34
20825;BME280;10573;50.936;6.978;2023-03-21T09:20:38;101188.31;;;12.27;72.35
20825;BME280;10573;50.936;6.978;2023-03-21T09:23:04;101181.28;;;12.15;72.66
20825;BME280;10573;50.936;6.978;2023-03-21T09:25:30;101183.97;;;12.44;71.91
20825;BME280;10573;50.936;6.978;2023-03-21T09:27:57;101184.69;;;12.36;71.98
20825;BME280;10573;50.936;6.978;2023-03-21T09:30:23;101189.81;;;12.59;71.62
20825;BME280;10573;50.936;6.978;2023-03-21T09:32:49;101187.59;;;12.25;72.46
20825;BME280;10573;50.936;6.978;2023-03-21T09:35:18;101190.09;;;12.66;71.15
20825;BME280;10573;50.936;6.978;2023-03-21T09:37:45;101189.47;;;12.82;70.49
20825;BME280;10573;50.936;6.978;2023-03-21T09:40:20;101191.38;;;12.71;70.68
20825;BME280;10573;50.936;6.978;2023-03-21T09:47:59;101192.25;;;12.72;70.01
20825;BME280;10573;50.936;6.978;2023-03-21T09:50:29;101192.00;;;12.93;69.25
20825;BME280;10573;50.936;6.978;2023-03-21T09:53:07;101197.63;;;13.01;69.84
20825;BME280;10573;50.936;6.978;2023-03-21T09:55:36;101190.41;;;12.63;70.38
20825;BME280;10573;50.936;6.978;2023-03-21T09:58:29;101182.91;;;12.65;70.86
20825;BME280;10573;50.936;6.978;2023-03-21T10:01:18;101193.56;;;12.68;70.52
20825;BME280;10573;50.936;6.978;2023-03-21T10:03:51;101184.16;;;12.80;69.54
20825;BME280;10573;50.936;6.978;2023-03-21T10:06:19;101171.53;;;12.69;69.79
20825;BME280;10573;50.936;6.978;2023-03-21T10:08:55;101172.28;;;12.62;70.33
20825;BME280;10573;50.936;6.978;2023-03-21T10:11:31;101169.50;;;12.71;70.21
20825;BME280;10573;50.936;6.978;2023-03-21T10:14:06;101171.44;;;12.61;70.58
20825;BME280;10573;50.936;6.978;2023-03-21T10:16:48;101168.69;;;12.61;70.70
20825;BME280;10573;50.936;6.978;2023-03-21T10:19:17;101172.31;;;12.52;71.18
20825;BME280;10573;50.936;6.978;2023-03-21T10:21:47;101169.16;;;12.47;71.38
20825;BME280;10573;50.936;6.978;2023-03-21T10:24:18;101169.44;;;12.53;70.96
20825;BME280;10573;50.936;6.978;2023-03-21T10:26:47;101170.56;;;12.51;71.29
20825;BME280;10573;50.936;6.978;2023-03-21T10:29:15;101151.88;;;12.56;71.35
20825;BME280;10573;50.936;6.978;2023-03-21T10:31:44;101152.88;;;12.55;70.94
20825;BME280;10573;50.936;6.978;2023-03-21T10:34:32;101151.19;;;12.82;70.42
20825;BME280;10573;50.936;6.978;2023-03-21T10:37:01;101149.94;;;12.66;70.79
20825;BME280;10573;50.936;6.978;2023-03-21T10:39:33;101155.63;;;12.92;69.78
20825;BME280;10573;50.936;6.978;2023-03-21T10:42:00;101147.06;;;13.05;69.22
20825;BME280;10573;50.936;6.978;2023-03-21T10:44:31;101145.03;;;13.07;69.31
20825;BME280;10573;50.936;6.978;2023-03-21T10:47:05;101145.53;;;12.93;68.85
20825;BME280;10573;50.936;6.978;2023-03-21T10:49:32;101134.22;;;12.78;69.18
20825;BME280;10573;50.936;6.978;2023-03-21T10:52:01;101125.72;;;13.09;68.59
20825;BME280;10573;50.936;6.978;2023-03-21T10:54:31;101118.41;;;13.27;68.06
20825;BME280;10573;50.936;6.978;2023-03-21T10:57:02;101113.47;;;13.41;67.56
20825;BME280;10573;50.936;6.978;2023-03-21T10:59:35;101119.75;;;13.51;66.47
20825;BME280;10573;50.936;6.978;2023-03-21T11:02:03;101109.16;;;13.74;66.56
20825;BME280;10573;50.936;6.978;2023-03-21T11:04:30;101103.56;;;13.58;66.70
20825;BME280;10573;50.936;6.978;2023-03-21T11:07:02;101111.97;;;13.47;66.34
20825;BME280;10573;50.936;6.978;2023-03-21T11:09:56;101099.78;;;13.13;66.87
20825;BME280;10573;50.936;6.978;2023-03-21T11:12:32;101100.34;;;13.17;67.26
20825;BME280;10573;50.936;6.978;2023-03-21T11:17:44;101093.38;;;12.76;67.29
20825;BME280;10573;50.936;6.978;2023-03-21T11:20:17;101093.44;;;12.95;67.17
20825;BME280;10573;50.936;6.978;2023-03-21T11:22:43;101091.03;;;13.09;67.24
20825;BME280;10573;50.936;6.978;2023-03-21T11:27:49;101081.44;;;13.05;67.00
20825;BME280;10573;50.936;6.978;2023-03-21T11:30:23;101072.34;;;13.05;67.48
20825;BME280;10573;50.936;6.978;2023-03-21T11:32:58;101063.88;;;12.98;67.79
20825;BME280;10573;50.936;6.978;2023-03-21T11:35:34;101058.53;;;13.24;67.20
20825;BME280;10573;50.936;6.978;2023-03-21T11:38:00;101066.72;;;13.06;67.75
20825;BME280;10573;50.936;6.978;2023-03-21T11:40:31;101056.56;;;13.17;67.71
20825;BME280;10573;50.936;6.978;2023-03-21T11:45:55;101057.38;;;13.27;67.44
20825;BME280;10573;50.936;6.978;2023-03-21T11:48:21;101059.31;;;12.99;67.87
20825;BME280;10573;50.936;6.978;2023-03-21T11:50:49;101062.84;;;13.27;67.40
20825;BME280;10573;50.936;6.978;2023-03-21T11:53:24;101059.47;;;13.33;67.33
20825;BME280;10573;50.936;6.978;2023-03-21T11:59:01;101076.81;;;13.24;67.47
20825;BME280;10573;50.936;6.978;2023-03-21T12:01:53;101068.84;;;13.13;67.76
20825;BME280;10573;50.936;6.978;2023-03-21T12:04:51;101059.41;;;13.25;67.61
20825;BME280;10573;50.936;6.978;2023-03-21T12:07:54;101054.47;;;13.29;67.23
20825;BME280;10573;50.936;6.978;2023-03-21T12:10:30;101046.22;;;12.92;68.12
20825;BME280;10573;50.936;6.978;2023-03-21T12:15:36;101047.28;;;13.27;68.09
20825;BME280;10573;50.936;6.978;2023-03-21T12:23:26;101045.63;;;13.17;68.54
20825;BME280;10573;50.936;6.978;2023-03-21T12:31:14;101025.69;;;12.88;67.92
20825;BME280;10573;50.936;6.978;2023-03-21T12:44:31;101014.81;;;12.79;68.82
20825;BME280;10573;50.936;6.978;2023-03-21T12:52:05;101040.94;;;13.09;67.47
20825;BME280;10573;50.936;6.978;2023-03-21T12:57:25;101014.09;;;13.40;67.76
20825;BME280;10573;50.936;6.978;2023-03-21T13:00:26;101016.41;;;13.71;66.08
20825;BME280;10573;50.936;6.978;2023-03-21T13:05:47;101009.53;;;13.93;65.06
20825;BME280;10573;50.936;6.978;2023-03-21T13:10:40;101007.91;;;13.83;64.20
20825;BME280;10573;50.936;6.978;2023-03-21T13:16:36;100991.16;;;14.12;63.69
20825;BME280;10573;50.936;6.978;2023-03-21T13:19:17;101001.25;;;14.12;63.75
20825;BME280;10573;50.936;6.978;2023-03-21T13:21:59;100981.84;;;14.39;62.91
20825;BME280;10573;50.936;6.978;2023-03-21T13:24:47;100976.31;;;14.23;62.97
20825;BME280;10573;50.936;6.978;2023-03-21T13:27:29;100978.41;;;14.03;63.00
20825;BME280;10573;50.936;6.978;2023-03-21T13:30:18;100980.13;;;14.30;62.82
20825;BME280;10573;50.936;6.978;2023-03-21T13:32:47;100962.16;;;14.01;62.94
20825;BME280;10573;50.936;6.978;2023-03-21T13:35:23;100957.44;;;13.85;63.59
20825;BME280;10573;50.936;6.978;2023-03-21T13:40:44;100962.03;;;14.11;62.92
20825;BME280;10573;50.936;6.978;2023-03-21T13:46:11;100948.91;;;14.23;62.73
20825;BME280;10573;50.936;6.978;2023-03-21T13:48:54;100941.63;;;14.05;62.64
20825;BME280;10573;50.936;6.978;2023-03-21T13:54:00;100934.88;;;13.65;63.25
20825;BME280;10573;50.936;6.978;2023-03-21T13:56:26;100936.44;;;13.94;62.82
20825;BME280;10573;50.936;6.978;2023-03-21T13:58:56;100937.66;;;14.34;62.30
20825;BME280;10573;50.936;6.978;2023-03-21T14:01:39;100940.41;;;14.34;62.23
20825;BME280;10573;50.936;6.978;2023-03-21T14:06:36;100917.19;;;14.12;62.16
20825;BME280;10573;50.936;6.978;2023-03-21T14:09:03;100911.56;;;14.73;61.31
20825;BME280;10573;50.936;6.978;2023-03-21T14:11:31;100911.16;;;14.59;61.35
20825;BME280;10573;50.936;6.978;2023-03-21T14:13:58;100914.16;;;14.74;60.04
20825;BME280;10573;50.936;6.978;2023-03-21T14:16:25;100908.69;;;14.74;59.96
20825;BME280;10573;50.936;6.978;2023-03-21T14:18:54;100906.44;;;14.78;60.11
20825;BME280;10573;50.936;6.978;2023-03-21T14:21:22;100903.19;;;14.83;60.30
20825;BME280;10573;50.936;6.978;2023-03-21T14:24:04;100895.09;;;14.73;60.43
20825;BME280;10573;50.936;6.978;2023-03-21T14:26:35;100896.78;;;14.57;60.72
20825;BME280;10573;50.936;6.978;2023-03-21T14:29:04;100895.84;;;14.32;61.50
20825;BME280;10573;50.936;6.978;2023-03-21T14:31:31;100894.81;;;14.33;61.54
20825;BME280;10573;50.936;6.978;2023-03-21T14:33:58;100893.50;;;14.62;60.94
20825;BME280;10573;50.936;6.978;2023-03-21T14:36:31;100889.91;;;14.45;60.82
20825;BME280;10573;50.936;6.978;2023-03-21T14:39:21;100887.53;;;14.58;61.18